createdAt,value
2023-03-18T05:54:05.770Z,100037.44
2023-03-18T05:57:09.287Z,100036.25
2023-03-18T06:00:13.444Z,100031.44
2023-03-18T06:03:17.114Z,100037.19
2023-03-18T06:06:19.793Z,100031.25
2023-03-18T06:09:24.002Z,100033.88
2023-03-18T06:12:28.501Z,100039.69
2023-03-18T06:15:32.236Z,100046.44
2023-03-18T06:18:35.201Z,100051.19
2023-03-18T06:21:38.498Z,100044.28
2023-03-18T06:24:42.518Z,100052.47
2023-03-18T06:27:45.345Z,100050.66
2023-03-18T06:30:48.029Z,100054.09
2023-03-18T06:33:50.839Z,100049.28
2023-03-18T06:36:53.339Z,100043.78
2023-03-18T06:39:57.277Z,100039.31
2023-03-18T06:42:59.726Z,100048.59
2023-03-18T06:46:02.734Z,100047.94
2023-03-18T06:49:05.401Z,100046.09
2023-03-18T06:52:07.882Z,100045.84
2023-03-18T06:55:12.325Z,100057.31
2023-03-18T06:58:15.551Z,100054.25
2023-03-18T07:01:18.158Z,100061.44
2023-03-18T07:04:20.857Z,100060.47
2023-03-18T07:07:24.666Z,100058.69
2023-03-18T07:10:31.048Z,100065.97
2023-03-18T07:13:34.545Z,100052.63
2023-03-18T07:16:37.093Z,100053.81
2023-03-18T07:19:39.773Z,100063.09
2023-03-18T07:22:42.375Z,100082.25
2023-03-18T07:25:46.338Z,100083.25
2023-03-18T07:28:49.057Z,100095.50
2023-03-18T07:31:51.682Z,100111.81
2023-03-18T07:34:54.340Z,100112.81
2023-03-18T07:37:57.124Z,100103.13
2023-03-18T07:41:00.954Z,100108.47
2023-03-18T07:44:03.428Z,100110.34
2023-03-18T07:47:06.112Z,100102.44
2023-03-18T07:50:09.970Z,100102.50
2023-03-18T07:53:14.079Z,100105.00
2023-03-18T07:56:19.041Z,100110.41
2023-03-18T07:59:21.806Z,100102.03
2023-03-18T08:02:25.370Z,100102.56
2023-03-18T08:05:28.072Z,100103.41
2023-03-18T08:08:30.553Z,100114.16
2023-03-18T08:11:34.376Z,100109.44
2023-03-18T08:14:37.272Z,100114.69
2023-03-18T08:17:39.979Z,100118.00
2023-03-18T08:20:42.491Z,100115.66
2023-03-18T08:23:45.082Z,100119.38
2023-03-18T08:26:48.877Z,100128.31
2023-03-18T08:29:51.362Z,100131.69
2023-03-18T08:32:53.974Z,100141.06
2023-03-18T08:35:57.952Z,100156.53
2023-03-18T08:39:00.787Z,100154.28
2023-03-18T08:42:05.494Z,100154.94
2023-03-18T08:45:09.606Z,100153.66
2023-03-18T08:48:13.186Z,100162.38
2023-03-18T08:51:16.771Z,100154.50
2023-03-18T08:54:21.214Z,100153.66
2023-03-18T08:57:27.778Z,100159.16
2023-03-18T09:00:30.394Z,100154.03
2023-03-18T09:03:33.739Z,100160.19
2023-03-18T09:06:36.447Z,100165.22
2023-03-18T09:09:43.916Z,100164.09
2023-03-18T09:12:49.880Z,100166.88
2023-03-18T09:15:52.910Z,100169.78
2023-03-18T09:18:55.462Z,100164.03
2023-03-18T09:21:59.166Z,100167.97
2023-03-18T09:25:01.796Z,100171.03
2023-03-18T09:28:06.249Z,100178.69
2023-03-18T09:31:08.962Z,100187.59
2023-03-18T09:34:13.502Z,100187.72
2023-03-18T09:37:16.402Z,100186.72
2023-03-18T09:40:25.747Z,100186.50
2023-03-18T09:43:44.791Z,100182.75
2023-03-18T09:47:04.276Z,100178.91
2023-03-18T09:50:21.117Z,100177.91
2023-03-18T09:53:27.610Z,100185.50
2023-03-18T09:56:34.626Z,100183.16
2023-03-18T09:59:43.380Z,100180.19
2023-03-18T10:02:49.307Z,100186.44
2023-03-18T10:05:56.712Z,100194.63
2023-03-18T10:09:05.446Z,100187.03
2023-03-18T10:12:16.773Z,100192.94
2023-03-18T10:15:27.594Z,100191.34
2023-03-18T10:18:32.989Z,100189.50
2023-03-18T10:21:43.965Z,100185.00
2023-03-18T10:24:54.271Z,100190.78
2023-03-18T10:28:31.122Z,100189.22
2023-03-18T10:31:50.018Z,100186.00
2023-03-18T10:35:03.972Z,100182.22
2023-03-18T10:38:17.092Z,100183.53
2023-03-18T10:41:25.334Z,100171.16
2023-03-18T10:44:32.466Z,100175.84
2023-03-18T10:47:42.998Z,100172.53
2023-03-18T10:50:52.532Z,100177.38
2023-03-18T10:54:00.955Z,100170.59
2023-03-18T10:57:03.566Z,100178.97
2023-03-18T11:00:26.429Z,100180.53
2023-03-18T11:03:34.598Z,100182.38
2023-03-18T11:06:42.552Z,100179.88
2023-03-18T11:09:46.164Z,100189.50
2023-03-18T11:12:51.929Z,100184.00
2023-03-18T11:15:57.080Z,100179.91
2023-03-18T11:19:07.072Z,100168.97
2023-03-18T11:22:20.366Z,100165.69
2023-03-18T11:25:26.605Z,100174.81
2023-03-18T11:28:30.582Z,100168.19
2023-03-18T11:31:34.016Z,100164.91
2023-03-18T11:39:00.164Z,100164.66
2023-03-18T11:42:02.717Z,100169.50
2023-03-18T11:45:20.243Z,100171.06
2023-03-18T11:48:36.994Z,100174.13
2023-03-18T11:51:47.689Z,100170.16
2023-03-18T11:55:14.442Z,100160.84
2023-03-18T11:58:43.767Z,100176.50
2023-03-18T12:02:00.275Z,100173.53
2023-03-18T12:05:29.343Z,100163.97
2023-03-18T12:08:45.031Z,100175.84
2023-03-18T12:12:00.694Z,100170.34
2023-03-18T12:15:13.625Z,100167.06
2023-03-18T12:18:31.271Z,100175.09
2023-03-18T12:21:47.712Z,100170.22
2023-03-18T12:24:59.499Z,100175.66
2023-03-18T12:28:07.723Z,100175.06
2023-03-18T12:31:45.412Z,100179.84
2023-03-18T12:35:22.326Z,100175.81
2023-03-18T12:38:46.812Z,100172.88
2023-03-18T12:42:01.110Z,100167.34
2023-03-18T12:45:12.588Z,100168.97
2023-03-18T12:48:20.761Z,100169.06
2023-03-18T12:51:30.500Z,100166.56
2023-03-18T12:54:37.630Z,100181.91
2023-03-18T12:57:45.292Z,100171.28
2023-03-18T13:00:55.416Z,100167.84
2023-03-18T13:04:05.059Z,100168.09
2023-03-18T13:07:17.272Z,100173.66
2023-03-18T13:10:22.508Z,100176.56
2023-03-18T13:13:27.761Z,100166.25
2023-03-18T13:16:33.549Z,100174.88
2023-03-18T13:19:37.635Z,100177.81
2023-03-18T13:23:03.653Z,100170.75
2023-03-18T13:26:15.247Z,100178.50
2023-03-18T13:29:22.428Z,100170.03
2023-03-18T13:32:48.585Z,100169.97
2023-03-18T13:36:06.861Z,100170.03
2023-03-18T13:39:22.552Z,100167.13
2023-03-18T13:42:28.659Z,100174.22
2023-03-18T13:45:33.669Z,100171.97
2023-03-18T13:48:37.725Z,100170.78
2023-03-18T13:51:50.888Z,100171.72
2023-03-18T13:54:53.818Z,100176.38
2023-03-18T13:57:58.469Z,100172.34
2023-03-18T14:01:40.332Z,100171.22
2023-03-18T14:04:48.432Z,100171.88
2023-03-18T14:07:50.923Z,100170.84
2023-03-18T14:11:38.322Z,100171.06
2023-03-18T14:14:55.368Z,100173.38
2023-03-18T14:17:59.093Z,100175.66
2023-03-18T14:21:08.051Z,100179.34
2023-03-18T14:24:13.533Z,100174.69
2023-03-18T14:27:20.300Z,100172.84
2023-03-18T14:30:46.746Z,100176.78
2023-03-18T14:33:59.564Z,100164.22
2023-03-18T14:37:27.619Z,100161.19
2023-03-18T14:40:35.936Z,100156.88
2023-03-18T14:43:44.212Z,100161.53
2023-03-18T14:46:49.761Z,100167.66
2023-03-18T14:49:57.494Z,100157.09
2023-03-18T14:53:06.184Z,100157.66
2023-03-18T14:56:18.422Z,100156.75
2023-03-18T14:59:25.591Z,100152.06
2023-03-18T15:02:30.802Z,100161.53
2023-03-18T15:05:37.272Z,100153.63
2023-03-18T15:08:49.798Z,100159.22
2023-03-18T15:11:52.264Z,100157.19
2023-03-18T15:14:55.244Z,100153.19
2023-03-18T15:17:57.670Z,100161.53
2023-03-18T15:21:03.972Z,100159.72
2023-03-18T15:24:09.482Z,100162.09
2023-03-18T15:27:16.065Z,100166.91
2023-03-18T15:30:27.642Z,100169.13
2023-03-18T15:33:35.285Z,100166.59
2023-03-18T15:36:42.818Z,100161.13
2023-03-18T15:39:46.688Z,100167.53
2023-03-18T15:42:50.307Z,100166.16
2023-03-18T15:45:55.197Z,100170.47
2023-03-18T15:48:59.459Z,100168.63
2023-03-18T15:52:03.354Z,100170.25
2023-03-18T15:55:29.175Z,100174.78
2023-03-18T15:58:37.201Z,100167.94
2023-03-18T16:01:41.459Z,100180.56
2023-03-18T16:04:45.951Z,100180.25
2023-03-18T16:07:48.934Z,100174.97
2023-03-18T16:10:55.988Z,100180.44
2023-03-18T16:13:59.805Z,100191.47
2023-03-18T16:17:02.626Z,100195.22
2023-03-18T16:20:17.723Z,100196.34
2023-03-18T16:23:21.131Z,100196.38
2023-03-18T16:26:24.873Z,100197.22
2023-03-18T16:29:30.752Z,100203.53
2023-03-18T16:32:33.354Z,100208.13
2023-03-18T16:35:36.449Z,100204.63
2023-03-18T16:38:41.094Z,100211.94
2023-03-18T16:41:45.132Z,100208.03
2023-03-18T16:44:47.597Z,100221.44
2023-03-18T16:47:52.029Z,100224.03
2023-03-18T16:50:56.818Z,100226.19
2023-03-18T16:53:59.937Z,100224.50
2023-03-18T16:57:05.339Z,100234.69
2023-03-18T17:00:19.342Z,100244.41
2023-03-18T17:03:22.134Z,100232.69
2023-03-18T17:06:24.543Z,100240.56
2023-03-18T17:09:28.143Z,100235.91
2023-03-18T17:12:32.092Z,100240.41
2023-03-18T17:15:37.566Z,100236.31
2023-03-18T17:18:40.080Z,100244.63
2023-03-18T17:21:42.544Z,100237.63
2023-03-18T17:24:45.043Z,100239.22
2023-03-18T17:27:52.319Z,100238.75
2023-03-18T17:30:55.074Z,100247.41
2023-03-18T17:33:57.503Z,100252.16
2023-03-18T17:36:59.995Z,100251.75
2023-03-18T17:40:02.516Z,100253.91
2023-03-18T17:43:06.773Z,100258.38
2023-03-18T17:46:09.734Z,100259.91
2023-03-18T17:49:12.641Z,100261.16
2023-03-18T17:52:19.413Z,100265.88
2023-03-18T17:55:24.331Z,100264.13
2023-03-18T17:58:31.146Z,100262.91
2023-03-18T18:01:33.595Z,100260.75
2023-03-18T18:04:36.765Z,100260.66
2023-03-18T18:07:39.224Z,100261.28
2023-03-18T18:10:41.661Z,100266.63
2023-03-18T18:13:45.915Z,100269.16
2023-03-18T18:16:48.838Z,100269.53
2023-03-18T18:19:51.300Z,100277.56
2023-03-18T18:22:56.687Z,100273.44
